createdAt,value
2023-03-11T00:00:00.469Z,97512.40
2023-03-11T00:02:30.886Z,97512.09
2023-03-11T00:05:01.458Z,97507.38
2023-03-11T00:07:31.983Z,97506.52
2023-03-11T00:10:03.226Z,97506.21
2023-03-11T00:12:33.846Z,97505.37
2023-03-11T00:15:04.775Z,97507.41
2023-03-11T00:17:35.222Z,97503.79
2023-03-11T00:20:06.983Z,97504.25
2023-03-11T00:22:37.443Z,97506.89
2023-03-11T00:25:08.816Z,97505.66
2023-03-11T00:27:39.694Z,97509.39
2023-03-11T00:30:12.911Z,97510.79
2023-03-11T00:32:43.478Z,97506.23
2023-03-11T00:35:16.910Z,97507.61
2023-03-11T00:37:49.549Z,97513.11
2023-03-11T00:40:21.886Z,97516.06
2023-03-11T00:42:53.009Z,97516.11
2023-03-11T00:45:23.959Z,97517.04
2023-03-11T00:47:55.447Z,97514.52
2023-03-11T00:50:28.817Z,97513.70
2023-03-11T00:53:00.979Z,97511.02
2023-03-11T00:55:33.438Z,97517.23
2023-03-11T00:58:08.375Z,97514.58
2023-03-11T01:00:45.052Z,97515.73
2023-03-11T01:03:15.782Z,97516.34
2023-03-11T01:05:48.449Z,97524.27
2023-03-11T01:08:18.976Z,97520.77
2023-03-11T01:10:49.514Z,97528.39
2023-03-11T01:13:20.258Z,97531.66
2023-03-11T01:15:50.899Z,97525.22
2023-03-11T01:18:21.927Z,97523.52
2023-03-11T01:20:52.449Z,97528.46
2023-03-11T01:23:23.907Z,97531.54
2023-03-11T01:25:54.357Z,97534.02
2023-03-11T01:28:24.794Z,97533.70
2023-03-11T01:30:55.250Z,97533.52
2023-03-11T01:33:25.720Z,97532.48
2023-03-11T01:35:56.565Z,97529.89
2023-03-11T01:38:30.380Z,97527.16
2023-03-11T01:41:00.822Z,97527.46
2023-03-11T01:43:48.867Z,97527.66
2023-03-11T01:46:24.230Z,97531.77
2023-03-11T01:48:56.747Z,97531.14
2023-03-11T01:51:33.214Z,97532.38
2023-03-11T01:54:08.096Z,97532.25
2023-03-11T01:56:40.430Z,97537.06
2023-03-11T01:59:13.459Z,97536.91
2023-03-11T02:01:51.028Z,97534.38
2023-03-11T02:04:22.723Z,97528.98
2023-03-11T02:06:54.236Z,97526.80
2023-03-11T02:09:27.121Z,97526.65
2023-03-11T02:12:50.695Z,97524.79
2023-03-11T02:16:16.500Z,97530.44
2023-03-11T02:18:47.596Z,97530.98
2023-03-11T02:21:26.469Z,97532.04
2023-03-11T02:24:06.798Z,97539.91
2023-03-11T02:26:42.604Z,97543.38
2023-03-11T02:29:14.246Z,97540.83
2023-03-11T02:31:46.986Z,97536.34
2023-03-11T02:34:24.525Z,97534.42
2023-03-11T02:36:55.346Z,97536.58
2023-03-11T02:39:34.060Z,97534.30
2023-03-11T02:42:08.271Z,97530.88
2023-03-11T02:44:40.705Z,97531.88
2023-03-11T02:47:11.526Z,97528.13
2023-03-11T02:49:42.596Z,97522.84
2023-03-11T02:52:13.063Z,97521.98
2023-03-11T02:54:43.689Z,97525.23
2023-03-11T02:57:14.171Z,97527.48
2023-03-11T02:59:44.817Z,97530.39
2023-03-11T03:02:15.588Z,97538.75
2023-03-11T03:04:46.357Z,97551.38
2023-03-11T03:07:17.370Z,97574.77
2023-03-11T03:09:47.862Z,97606.14
2023-03-11T03:12:18.313Z,97609.91
2023-03-11T03:14:48.942Z,97620.33
2023-03-11T03:17:20.423Z,97620.32
2023-03-11T03:19:51.330Z,97628.52
2023-03-11T03:22:22.199Z,97635.64
2023-03-11T03:24:53.114Z,97649.67
2023-03-11T03:27:23.942Z,97638.86
2023-03-11T03:29:55.063Z,97646.89
2023-03-11T03:32:25.880Z,97650.98
2023-03-11T03:34:59.136Z,97648.96
2023-03-11T03:37:38.885Z,97662.38
2023-03-11T03:40:12.361Z,97661.21
2023-03-11T03:42:43.303Z,97664.44
2023-03-11T03:45:15.122Z,97665.61
2023-03-11T03:47:45.812Z,97658.50
2023-03-11T03:50:16.713Z,97667.98
2023-03-11T03:52:48.911Z,97668.77
2023-03-11T03:55:20.215Z,97671.98
2023-03-11T03:57:51.303Z,97679.20
2023-03-11T04:00:23.931Z,97695.28
2023-03-11T04:02:57.898Z,97707.98
2023-03-11T04:05:34.539Z,97713.89
2023-03-11T04:08:30.728Z,97712.15
2023-03-11T04:11:01.507Z,97732.09
2023-03-11T04:13:33.648Z,97727.43
2023-03-11T04:16:05.885Z,97731.13
2023-03-11T04:18:35.325Z,97727.83
2023-03-11T04:21:09.525Z,97730.60
2023-03-11T04:23:40.652Z,97739.48
2023-03-11T04:26:11.535Z,97732.15
2023-03-11T04:28:42.530Z,97733.10
2023-03-11T04:31:13.369Z,97735.09
2023-03-11T04:33:44.644Z,97740.33
2023-03-11T04:36:15.638Z,97739.08
2023-03-11T04:38:46.877Z,97732.58
2023-03-11T04:41:17.619Z,97735.90
2023-03-11T04:43:48.536Z,97743.80
2023-03-11T04:46:19.372Z,97743.43
2023-03-11T04:48:50.040Z,97747.80
2023-03-11T04:51:21.387Z,97751.13
2023-03-11T04:53:52.022Z,97747.05
2023-03-11T04:56:23.008Z,97753.46
2023-03-11T04:58:53.955Z,97751.61
2023-03-11T05:01:25.069Z,97765.08
2023-03-11T05:03:55.768Z,97770.61
2023-03-11T05:06:26.308Z,97760.44
2023-03-11T05:08:57.277Z,97771.34
2023-03-11T05:11:28.261Z,97769.46
2023-03-11T05:13:58.856Z,97776.20
2023-03-11T05:16:30.109Z,97781.71
2023-03-11T05:19:00.861Z,97789.21
2023-03-11T05:21:31.272Z,97785.61
2023-03-11T05:24:01.823Z,97787.27
2023-03-11T05:26:32.233Z,97794.86
2023-03-11T05:29:03.226Z,97796.98
2023-03-11T05:31:33.860Z,97799.66
2023-03-11T05:34:05.050Z,97801.84
2023-03-11T05:36:35.588Z,97804.19
2023-03-11T05:39:06.777Z,97808.23
2023-03-11T05:41:37.829Z,97818.41
2023-03-11T05:44:14.788Z,97826.59
2023-03-11T05:46:45.812Z,97832.23
2023-03-11T05:49:16.379Z,97835.54
2023-03-11T05:51:46.804Z,97840.11
2023-03-11T05:54:17.749Z,97839.59
2023-03-11T05:56:50.566Z,97849.36
2023-03-11T05:59:21.533Z,97852.23
2023-03-11T06:01:57.138Z,97856.90
2023-03-11T06:04:27.819Z,97852.11
2023-03-11T06:06:58.539Z,97864.87
2023-03-11T06:09:31.424Z,97861.59
2023-03-11T06:12:02.414Z,97874.55
2023-03-11T06:14:38.777Z,97875.31
2023-03-11T06:17:09.616Z,97888.56
2023-03-11T06:19:40.140Z,97890.81
2023-03-11T06:22:12.329Z,97896.45
2023-03-11T06:24:42.944Z,97899.95
2023-03-11T06:27:13.803Z,97907.38
2023-03-11T06:29:44.659Z,97910.40
2023-03-11T06:32:15.548Z,97916.48
2023-03-11T06:34:46.107Z,97922.16
2023-03-11T06:37:16.586Z,97929.22
2023-03-11T06:39:47.043Z,97935.39
2023-03-11T06:42:20.276Z,97943.09
2023-03-11T06:44:51.497Z,97948.40
2023-03-11T06:47:22.123Z,97954.39
2023-03-11T06:49:54.845Z,97958.87
2023-03-11T06:52:23.786Z,97965.14
2023-03-11T06:54:54.361Z,97970.56
2023-03-11T06:57:24.882Z,97980.73
2023-03-11T06:59:56.049Z,97992.23
2023-03-11T07:02:26.718Z,97994.06
2023-03-11T07:04:57.398Z,98000.65
2023-03-11T07:07:27.812Z,98010.79
2023-03-11T07:09:59.235Z,98018.52
2023-03-11T07:12:29.974Z,98025.27
2023-03-11T07:15:01.436Z,98035.22
2023-03-11T07:17:33.474Z,98047.42
2023-03-11T07:20:04.384Z,98051.97
2023-03-11T07:22:34.833Z,98054.89
2023-03-11T07:25:06.001Z,98058.04
2023-03-11T07:27:36.427Z,98070.64
2023-03-11T07:30:08.482Z,98067.13
2023-03-11T07:32:39.038Z,98079.31
2023-03-11T07:35:11.900Z,98080.45
2023-03-11T07:37:42.276Z,98086.94
2023-03-11T07:40:15.027Z,98094.15
2023-03-11T07:42:45.456Z,98112.42
2023-03-11T07:45:16.377Z,98118.29
2023-03-11T07:47:46.940Z,98126.60
2023-03-11T07:50:18.258Z,98128.67
2023-03-11T07:52:48.884Z,98143.46
2023-03-11T07:55:19.953Z,98148.52
2023-03-11T07:57:51.778Z,98156.10
2023-03-11T08:00:23.675Z,98170.76
2023-03-11T08:02:54.515Z,98171.41
2023-03-11T08:05:25.184Z,98194.60
2023-03-11T08:07:55.653Z,98200.91
2023-03-11T08:10:26.188Z,98201.13
2023-03-11T08:12:56.608Z,98204.41
2023-03-11T08:15:27.144Z,98223.04
2023-03-11T08:17:57.625Z,98227.99
2023-03-11T08:20:28.065Z,98238.83
2023-03-11T08:22:58.703Z,98250.24
2023-03-11T08:25:29.722Z,98261.81
2023-03-11T08:28:00.176Z,98269.76
2023-03-11T08:30:31.398Z,98284.86
2023-03-11T08:33:01.920Z,98293.13
2023-03-11T08:35:32.760Z,98295.08
2023-03-11T08:38:03.380Z,98306.39
2023-03-11T08:40:34.019Z,98313.56
2023-03-11T08:43:04.492Z,98328.36
2023-03-11T08:45:35.257Z,98336.85
2023-03-11T08:48:05.942Z,98345.03
2023-03-11T08:50:47.440Z,98352.52
2023-03-11T08:53:24.279Z,98361.40
2023-03-11T08:55:55.277Z,98364.17
2023-03-11T08:58:25.692Z,98379.35
2023-03-11T09:00:56.269Z,98389.23
2023-03-11T09:03:27.570Z,98395.84
2023-03-11T09:06:01.911Z,98399.48
2023-03-11T09:08:32.934Z,98407.50
2023-03-11T09:11:03.792Z,98418.09
2023-03-11T09:13:34.225Z,98422.24
2023-03-11T09:16:06.035Z,98429.73
2023-03-11T09:18:36.542Z,98442.01
2023-03-11T09:21:07.743Z,98454.60
2023-03-11T09:23:38.393Z,98461.96
2023-03-11T09:26:09.105Z,98471.31
2023-03-11T09:28:39.638Z,98481.84
2023-03-11T09:31:10.334Z,98491.13
2023-03-11T09:33:42.887Z,98495.66
2023-03-11T09:36:17.280Z,98497.12
2023-03-11T09:38:48.228Z,98507.05
2023-03-11T09:41:29.600Z,98519.45
2023-03-11T09:44:12.413Z,98525.27
2023-03-11T09:51:08.365Z,98552.60
2023-03-11T09:58:01.478Z,98582.64
2023-03-11T10:00:33.015Z,98580.30
2023-03-11T10:03:07.867Z,98584.39
2023-03-11T10:05:39.504Z,98599.93
2023-03-11T10:08:22.724Z,98606.74
2023-03-11T10:11:00.415Z,98613.24
2023-03-11T10:13:36.816Z,98617.63
2023-03-11T10:16:15.629Z,98611.01
2023-03-11T10:18:51.060Z,98624.61
2023-03-11T10:21:32.847Z,98629.95
2023-03-11T10:24:34.925Z,98633.04
2023-03-11T10:27:13.526Z,98632.39
2023-03-11T10:29:51.800Z,98647.05
2023-03-11T10:32:30.973Z,98648.90
2023-03-11T10:35:06.334Z,98649.85
2023-03-11T10:37:49.476Z,98658.59
2023-03-11T10:40:27.339Z,98663.55
2023-03-11T10:43:02.841Z,98670.19
2023-03-11T10:45:38.955Z,98671.54
2023-03-11T10:48:14.177Z,98678.40
2023-03-11T10:50:52.003Z,98680.55
2023-03-11T10:53:22.845Z,98693.90
2023-03-11T10:55:55.210Z,98703.30
2023-03-11T10:58:27.034Z,98709.34
2023-03-11T11:01:08.837Z,98715.52
2023-03-11T11:03:44.493Z,98720.30
2023-03-11T11:06:26.376Z,98718.63
2023-03-11T11:09:19.807Z,98724.14
2023-03-11T11:12:05.780Z,98729.27
2023-03-11T11:14:50.125Z,98728.41
2023-03-11T11:17:25.477Z,98737.14
2023-03-11T11:19:58.167Z,98738.50
2023-03-11T11:22:32.282Z,98748.63
2023-03-11T11:25:02.727Z,98761.36
2023-03-11T11:27:34.456Z,98761.56
2023-03-11T11:30:18.888Z,98769.83
2023-03-11T11:32:51.543Z,98774.16
2023-03-11T11:35:23.597Z,98768.86
2023-03-11T11:37:56.547Z,98775.60
2023-03-11T11:40:32.710Z,98771.85
2023-03-11T11:43:07.370Z,98781.33
2023-03-11T11:45:41.650Z,98793.54
2023-03-11T11:48:19.288Z,98795.58
2023-03-11T11:50:55.840Z,98802.02
2023-03-11T11:53:38.222Z,98804.71
2023-03-11T11:56:08.858Z,98809.46
2023-03-11T11:58:41.492Z,98814.08
2023-03-11T12:01:19.885Z,98818.23
2023-03-11T12:04:26.324Z,98817.56
2023-03-11T12:07:11.696Z,98822.30
2023-03-11T12:09:53.370Z,98833.89
2023-03-11T12:12:33.959Z,98835.79
2023-03-11T12:15:14.311Z,98831.25
2023-03-11T12:17:48.662Z,98835.00
2023-03-11T12:20:27.885Z,98839.45
2023-03-11T12:23:21.639Z,98847.14
2023-03-11T12:26:07.022Z,98845.08
2023-03-11T12:28:46.678Z,98849.86
2023-03-11T12:31:17.513Z,98854.83
2023-03-11T12:33:51.263Z,98858.23
2023-03-11T12:36:30.019Z,98854.15
2023-03-11T12:38:59.438Z,98861.55
2023-03-11T12:41:33.683Z,98865.94
2023-03-11T12:44:22.587Z,98865.51
2023-03-11T12:47:23.560Z,98869.99
2023-03-11T12:49:56.214Z,98882.45
2023-03-11T12:52:31.278Z,98889.35
2023-03-11T12:55:38.748Z,98896.80
2023-03-11T12:58:35.705Z,98943.11
2023-03-11T13:01:19.611Z,98938.52
2023-03-11T13:04:03.705Z,98941.60
2023-03-11T13:07:00.584Z,98941.30
2023-03-11T13:09:31.689Z,98948.52
2023-03-11T13:12:02.426Z,98951.06
2023-03-11T13:14:34.482Z,98953.15
2023-03-11T13:17:26.726Z,98960.31
2023-03-11T13:19:58.434Z,98970.67
2023-03-11T13:23:21.151Z,98963.98
2023-03-11T13:26:20.133Z,98971.42
2023-03-11T13:29:05.528Z,98976.98
2023-03-11T13:31:50.945Z,98982.73
2023-03-11T13:34:30.434Z,98995.72
2023-03-11T13:37:20.754Z,98999.00
2023-03-11T13:40:04.061Z,99005.42
2023-03-11T13:42:38.038Z,99013.52
2023-03-11T13:45:17.310Z,99021.63
2023-03-11T13:47:49.835Z,99024.80
2023-03-11T13:50:27.789Z,99026.74
2023-03-11T13:53:00.672Z,99029.98
2023-03-11T14:03:47.861Z,99044.20
2023-03-11T14:06:20.782Z,99053.77
2023-03-11T14:08:57.886Z,99060.44
2023-03-11T14:11:30.218Z,99062.58
2023-03-11T14:14:01.982Z,99066.59
2023-03-11T14:16:43.926Z,99073.33
2023-03-11T14:19:19.136Z,99081.90
2023-03-11T14:21:51.691Z,99086.48
2023-03-11T14:24:26.230Z,99098.75
2023-03-11T14:26:59.065Z,99099.77
2023-03-11T14:29:33.914Z,99107.05
2023-03-11T14:32:25.010Z,99114.73
2023-03-11T14:34:55.844Z,99116.27
2023-03-11T14:37:34.454Z,99127.22
2023-03-11T14:40:06.137Z,99133.56
2023-03-11T14:42:39.358Z,99135.29
2023-03-11T14:45:16.818Z,99137.83
2023-03-11T14:47:52.148Z,99137.13
2023-03-11T14:50:25.925Z,99145.62
2023-03-11T14:53:04.344Z,99150.25
2023-03-11T14:55:40.504Z,99147.65
2023-03-11T14:58:16.689Z,99153.33
2023-03-11T15:00:51.471Z,99156.66
2023-03-11T15:03:26.900Z,99156.73
2023-03-11T15:05:59.865Z,99154.28
2023-03-11T15:08:35.378Z,99160.33
2023-03-11T15:11:19.841Z,99162.52
2023-03-11T15:13:51.718Z,99165.72
2023-03-11T15:16:31.552Z,99167.41
2023-03-11T15:19:24.738Z,99170.82
2023-03-11T15:21:58.548Z,99172.77
2023-03-11T15:24:31.022Z,99172.73
2023-03-11T15:27:02.578Z,99172.68
2023-03-11T15:29:34.574Z,99176.55
2023-03-11T15:32:38.601Z,99184.60
2023-03-11T15:35:15.935Z,99193.85
2023-03-11T15:37:48.507Z,99193.20
2023-03-11T15:40:42.429Z,99193.50
2023-03-11T15:43:28.033Z,99204.87
2023-03-11T15:46:01.019Z,99208.09
2023-03-11T15:48:31.810Z,99214.63
2023-03-11T15:51:03.156Z,99220.31
2023-03-11T15:53:33.880Z,99229.32
2023-03-11T15:56:13.375Z,99230.58
2023-03-11T15:58:43.980Z,99243.65
2023-03-11T16:01:14.434Z,99247.50
2023-03-11T16:03:45.307Z,99246.13
2023-03-11T16:06:15.912Z,99248.58
2023-03-11T16:08:46.587Z,99249.79
2023-03-11T16:15:38.933Z,99267.36
2023-03-11T16:18:10.947Z,99271.69
2023-03-11T16:20:43.913Z,99273.82
2023-03-11T16:23:19.517Z,99283.58
2023-03-11T16:25:50.616Z,99285.20
2023-03-11T16:28:21.120Z,99290.69
2023-03-11T16:30:52.716Z,99297.67
2023-03-11T16:33:23.257Z,99306.23
2023-03-11T16:35:53.979Z,99311.86
2023-03-11T16:38:24.995Z,99314.80
2023-03-11T16:41:00.544Z,99323.54
2023-03-11T16:43:32.925Z,99328.15
2023-03-11T16:46:03.388Z,99329.63
2023-03-11T16:48:34.285Z,99335.08
2023-03-11T16:51:05.105Z,99343.86
2023-03-11T16:53:35.527Z,99341.36
2023-03-11T16:56:08.004Z,99346.70
2023-03-11T16:58:37.356Z,99346.34
2023-03-11T17:01:08.056Z,99349.98
2023-03-11T17:03:42.888Z,99359.42
2023-03-11T17:06:13.624Z,99368.15
2023-03-11T17:08:49.182Z,99371.35
2023-03-11T17:11:22.557Z,99378.77
2023-03-11T17:13:55.381Z,99388.33
2023-03-11T17:20:44.612Z,99398.67
2023-03-11T17:23:15.012Z,99406.42
2023-03-11T17:25:45.488Z,99407.50
2023-03-11T17:28:16.016Z,99414.52
2023-03-11T17:30:47.097Z,99414.83
2023-03-11T17:33:17.633Z,99419.17
2023-03-11T17:35:48.276Z,99417.20
2023-03-11T17:38:18.822Z,99425.23
2023-03-11T17:40:49.238Z,99427.61
2023-03-11T17:43:19.699Z,99430.61
2023-03-11T17:45:50.426Z,99438.57
2023-03-11T17:48:21.399Z,99444.26
2023-03-11T17:50:51.850Z,99443.96
2023-03-11T17:53:22.462Z,99448.39
2023-03-11T17:55:52.853Z,99450.77
2023-03-11T17:58:23.265Z,99454.86
2023-03-11T18:00:53.704Z,99456.94
2023-03-11T18:07:39.425Z,99471.64
2023-03-11T18:10:13.889Z,99477.11
2023-03-11T18:12:47.917Z,99482.29
2023-03-11T18:15:19.872Z,99485.88
2023-03-11T18:17:50.941Z,99486.14
2023-03-11T18:20:21.929Z,99486.90
2023-03-11T18:22:52.997Z,99490.00
2023-03-11T18:25:23.448Z,99498.80
2023-03-11T18:27:54.036Z,99502.32
2023-03-11T18:30:24.880Z,99504.59
2023-03-11T18:32:55.407Z,99506.73
2023-03-11T18:35:26.035Z,99513.98
2023-03-11T18:37:56.562Z,99514.89
2023-03-11T18:40:27.930Z,99517.02
2023-03-11T18:42:58.541Z,99522.93
2023-03-11T18:45:28.971Z,99527.27
2023-03-11T18:47:59.483Z,99531.11
2023-03-11T18:50:31.107Z,99534.48
2023-03-11T18:53:01.772Z,99537.94
2023-03-11T18:55:34.968Z,99543.03
2023-03-11T18:58:09.381Z,99548.19
2023-03-11T19:00:40.055Z,99551.74
2023-03-11T19:03:13.451Z,99555.39
2023-03-11T19:05:50.700Z,99557.13
2023-03-11T19:08:21.382Z,99559.55
2023-03-11T19:10:52.194Z,99561.23
2023-03-11T19:13:22.621Z,99566.07
2023-03-11T19:15:53.560Z,99568.48
2023-03-11T19:18:25.431Z,99572.61
2023-03-11T19:21:01.069Z,99576.97
2023-03-11T19:23:32.735Z,99580.77
2023-03-11T19:26:03.812Z,99581.88
2023-03-11T19:28:34.705Z,99585.16
2023-03-11T19:31:06.209Z,99588.20
2023-03-11T19:33:36.902Z,99589.81
2023-03-11T19:36:09.906Z,99594.77
2023-03-11T19:38:40.462Z,99598.84
2023-03-11T19:41:14.447Z,99599.04
2023-03-11T19:43:45.363Z,99603.92
2023-03-11T19:46:18.266Z,99607.92
2023-03-11T19:48:49.103Z,99605.48
2023-03-11T19:51:19.682Z,99608.15
2023-03-11T19:53:50.152Z,99611.84
2023-03-11T19:56:20.797Z,99613.17
2023-03-11T19:58:52.241Z,99612.98
2023-03-11T20:01:25.341Z,99614.26
2023-03-11T20:03:55.751Z,99615.74
2023-03-11T20:06:26.343Z,99618.16
2023-03-11T20:08:57.244Z,99620.00
2023-03-11T20:11:27.822Z,99620.68
2023-03-11T20:13:58.542Z,99625.86
2023-03-11T20:16:29.116Z,99627.60
2023-03-11T20:18:59.737Z,99629.02
2023-03-11T20:21:30.579Z,99632.48
2023-03-11T20:24:01.449Z,99635.54
2023-03-11T20:26:31.965Z,99634.23
2023-03-11T20:29:02.455Z,99633.24
2023-03-11T20:31:33.386Z,99638.08
2023-03-11T20:34:04.060Z,99637.31
2023-03-11T20:36:35.325Z,99642.51
2023-03-11T20:39:09.980Z,99651.73
2023-03-11T20:41:42.446Z,99653.92
2023-03-11T20:44:15.076Z,99657.19
2023-03-11T20:46:45.861Z,99655.82
2023-03-11T20:49:16.504Z,99656.48
2023-03-11T20:51:48.188Z,99654.50
2023-03-11T20:54:19.082Z,99656.13
2023-03-11T20:56:51.004Z,99649.97
2023-03-11T20:59:21.602Z,99642.10
2023-03-11T21:01:52.206Z,99646.70
2023-03-11T21:04:24.459Z,99648.89
2023-03-11T21:06:55.511Z,99646.96
2023-03-11T21:09:26.272Z,99643.89
2023-03-11T21:11:57.086Z,99647.46
2023-03-11T21:14:27.731Z,99645.42
2023-03-11T21:16:58.422Z,99646.46
2023-03-11T21:19:29.226Z,99646.40
2023-03-11T21:22:00.163Z,99643.52
2023-03-11T21:24:30.802Z,99645.84
2023-03-11T21:27:01.319Z,99645.39
2023-03-11T21:29:31.854Z,99642.55
2023-03-11T21:32:02.465Z,99640.52
2023-03-11T21:34:33.115Z,99642.66
2023-03-11T21:37:03.860Z,99642.25
2023-03-11T21:39:34.377Z,99648.11
2023-03-11T21:42:05.292Z,99649.56
2023-03-11T21:44:35.858Z,99649.95
2023-03-11T21:47:06.785Z,99651.52
2023-03-11T21:49:38.786Z,99644.00
2023-03-11T21:52:09.638Z,99644.91
2023-03-11T21:54:40.108Z,99644.04
2023-03-11T21:57:11.518Z,99647.09
2023-03-11T21:59:42.162Z,99644.60
2023-03-11T22:02:17.021Z,99648.67
2023-03-11T22:04:48.560Z,99649.17
2023-03-11T22:07:19.328Z,99647.29
2023-03-11T22:09:51.945Z,99647.73
2023-03-11T22:12:22.486Z,99649.52
2023-03-11T22:14:53.033Z,99650.52
2023-03-11T22:21:36.626Z,99653.68
2023-03-11T22:24:08.230Z,99653.16
2023-03-11T22:26:38.682Z,99654.15
2023-03-11T22:37:57.473Z,99663.02
2023-03-11T22:40:28.789Z,99663.18
2023-03-11T22:42:59.217Z,99666.95
2023-03-11T22:45:29.743Z,99671.14
2023-03-11T22:48:00.993Z,99668.95
2023-03-11T22:50:33.271Z,99669.73
2023-03-11T22:53:03.710Z,99667.89
2023-03-11T22:59:47.413Z,99669.69
2023-03-11T23:06:38.613Z,99678.88
2023-03-11T23:09:09.253Z,99682.90
2023-03-11T23:11:39.678Z,99687.32
2023-03-11T23:14:10.123Z,99690.88
2023-03-11T23:21:14.358Z,99690.73
2023-03-11T23:23:44.808Z,99692.73
2023-03-11T23:26:16.201Z,99695.69
2023-03-11T23:28:47.893Z,99702.15
2023-03-11T23:31:19.413Z,99703.98
2023-03-11T23:38:11.123Z,99711.08
2023-03-11T23:40:43.744Z,99711.23
2023-03-11T23:43:12.657Z,99713.15
2023-03-11T23:45:45.331Z,99712.19
2023-03-11T23:48:16.049Z,99703.73
2023-03-11T23:50:49.167Z,99705.15
2023-03-11T23:53:23.178Z,99708.44
2023-03-11T23:55:53.746Z,99709.39
2023-03-11T23:58:24.638Z,99711.00
